createdAt,value
2018-11-25T00:01:03.156Z,72.50
2018-11-25T00:06:06.719Z,71.30
2018-11-25T00:11:10.425Z,70.90
2018-11-25T00:16:14.042Z,71.40
2018-11-25T00:21:19.722Z,71.70
2018-11-25T00:26:23.970Z,70.40
2018-11-25T00:31:27.860Z,69.80
2018-11-25T00:36:31.493Z,69.70
2018-11-25T00:41:35.105Z,69.60
2018-11-25T00:46:38.717Z,69.50
2018-11-25T00:51:42.376Z,69.60
2018-11-25T00:56:45.961Z,69.50
2018-11-25T01:01:49.550Z,69.90
2018-11-25T01:06:53.268Z,70.70
2018-11-25T01:11:56.809Z,71.90
2018-11-25T01:17:00.433Z,72.70
2018-11-25T01:22:04.054Z,72.80
2018-11-25T01:27:07.603Z,72.80
2018-11-25T01:32:11.193Z,73.60
2018-11-25T01:37:15.053Z,74.00
2018-11-25T01:42:18.621Z,75.10
2018-11-25T01:47:22.247Z,75.70
2018-11-25T01:52:25.810Z,76.40
2018-11-25T01:57:29.361Z,76.60
2018-11-25T02:02:33.436Z,76.10
2018-11-25T02:07:37.037Z,75.40
2018-11-25T02:12:41.463Z,75.90
2018-11-25T02:17:45.061Z,76.10
2018-11-25T02:22:49.800Z,76.50
2018-11-25T02:27:53.407Z,76.20
2018-11-25T02:32:56.963Z,75.40
2018-11-25T02:38:00.569Z,75.50
2018-11-25T02:48:32.786Z,75.20
2018-11-25T02:53:36.348Z,75.40
2018-11-25T02:58:40.008Z,75.30
2018-11-25T03:03:43.585Z,74.40
2018-11-25T03:08:47.272Z,74.20
2018-11-25T03:13:51.252Z,74.10
2018-11-25T03:18:55.310Z,74.20
2018-11-25T03:23:58.880Z,74.10
2018-11-25T03:29:02.727Z,74.30
2018-11-25T03:34:06.902Z,74.20
2018-11-25T03:39:10.450Z,74.20
2018-11-25T03:44:14.012Z,74.00
2018-11-25T03:49:18.449Z,74.10
2018-11-25T03:54:21.999Z,74.50
2018-11-25T03:59:26.243Z,74.50
2018-11-25T04:04:30.336Z,75.00
2018-11-25T04:09:33.892Z,75.40
2018-11-25T04:14:37.496Z,75.50
2018-11-25T04:19:41.902Z,74.90
2018-11-25T04:24:45.465Z,75.10
2018-11-25T04:29:49.793Z,75.30
2018-11-25T04:34:53.685Z,75.40
2018-11-25T04:39:57.292Z,75.30
2018-11-25T04:45:02.483Z,75.10
2018-11-25T04:50:10.256Z,74.90
2018-11-25T04:55:13.973Z,74.60
2018-11-25T05:00:17.577Z,74.30
2018-11-25T05:05:21.126Z,74.40
2018-11-25T05:10:24.795Z,74.70
2018-11-25T05:15:28.640Z,75.10
2018-11-25T05:20:32.452Z,74.90
2018-11-25T05:25:36.202Z,74.60
2018-11-25T05:30:40.073Z,74.50
2018-11-25T05:35:43.902Z,74.30
2018-11-25T05:40:47.461Z,74.60
2018-11-25T05:45:51.077Z,75.20
2018-11-25T05:50:58.347Z,75.40
2018-11-25T05:56:01.913Z,75.60
2018-11-25T06:01:05.578Z,76.20
2018-11-25T06:06:09.120Z,76.00
2018-11-25T06:11:13.197Z,75.60
2018-11-25T06:16:16.764Z,75.00
2018-11-25T06:21:20.355Z,75.30
2018-11-25T06:26:23.980Z,75.10
2018-11-25T06:31:28.674Z,74.80
2018-11-25T06:36:32.248Z,75.10
2018-11-25T06:41:36.533Z,75.60
2018-11-25T06:46:41.372Z,75.40
2018-11-25T06:51:45.512Z,75.50
2018-11-25T06:56:49.233Z,74.80
2018-11-25T07:01:52.808Z,74.60
2018-11-25T07:06:57.043Z,74.20
2018-11-25T07:12:00.673Z,73.80
2018-11-25T07:17:04.281Z,73.90
2018-11-25T07:22:07.845Z,73.60
2018-11-25T07:27:11.430Z,73.00
2018-11-25T07:32:15.071Z,72.50
2018-11-25T07:37:18.664Z,72.90
2018-11-25T07:42:22.546Z,72.90
2018-11-25T07:47:26.213Z,72.80
2018-11-25T07:52:29.795Z,72.90
2018-11-25T07:57:33.429Z,73.60
2018-11-25T08:02:41.612Z,73.80
2018-11-25T08:07:40.657Z,73.40
2018-11-25T08:12:45.012Z,73.40
2018-11-25T08:17:48.673Z,73.50
2018-11-25T08:22:52.274Z,73.50
2018-11-25T08:27:58.066Z,73.00
2018-11-25T08:33:01.616Z,72.60
2018-11-25T08:38:05.244Z,73.00
2018-11-25T08:43:08.857Z,73.60
2018-11-25T08:48:12.838Z,73.40
2018-11-25T08:53:16.406Z,73.30
2018-11-25T08:58:20.050Z,73.10
2018-11-25T09:03:23.594Z,72.80
2018-11-25T09:08:27.184Z,73.00
2018-11-25T09:13:30.989Z,72.00
2018-11-25T09:18:34.583Z,71.90
2018-11-25T09:23:48.561Z,72.00
2018-11-25T09:28:52.360Z,72.60
2018-11-25T09:33:56.780Z,72.90
2018-11-25T09:38:59.437Z,73.00
2018-11-25T09:44:03.236Z,73.00
2018-11-25T09:49:06.924Z,72.90
2018-11-25T09:54:10.512Z,72.40
2018-11-25T09:59:14.171Z,71.90
2018-11-25T10:04:18.012Z,71.40
2018-11-25T10:09:21.788Z,71.20
2018-11-25T10:14:25.946Z,71.60
2018-11-25T10:19:29.757Z,72.40
2018-11-25T10:24:33.336Z,72.20
2018-11-25T10:29:37.013Z,72.00
2018-11-25T10:34:40.998Z,71.30
2018-11-25T10:39:44.641Z,71.80
2018-11-25T10:44:48.324Z,71.30
2018-11-25T10:49:52.796Z,70.40
2018-11-25T10:54:56.467Z,69.40
2018-11-25T11:00:00.183Z,68.50
2018-11-25T11:05:05.456Z,63.50
2018-11-25T11:10:10.304Z,62.30
2018-11-25T11:15:13.922Z,61.30
2018-11-25T11:20:17.766Z,58.50
2018-11-25T11:25:21.393Z,55.80
2018-11-25T11:30:25.147Z,54.70
2018-11-25T11:35:29.112Z,54.70
2018-11-25T11:40:32.818Z,56.80
2018-11-25T11:45:37.286Z,58.10
2018-11-25T11:50:40.905Z,58.40
2018-11-25T11:55:45.772Z,59.30
2018-11-25T12:00:49.612Z,61.10
2018-11-25T12:06:06.944Z,62.50
2018-11-25T12:11:10.498Z,64.70
2018-11-25T12:16:14.279Z,66.20
2018-11-25T12:21:18.073Z,67.00
2018-11-25T12:26:21.667Z,67.40
2018-11-25T12:31:25.249Z,68.60
2018-11-25T12:36:28.936Z,68.70
2018-11-25T12:41:32.559Z,68.00
2018-11-25T12:46:36.176Z,69.10
2018-11-25T12:51:41.293Z,69.70
2018-11-25T12:56:51.700Z,70.10
2018-11-25T13:01:48.932Z,68.90
2018-11-25T13:06:52.548Z,68.10
2018-11-25T13:11:56.109Z,69.30
2018-11-25T13:16:59.758Z,69.20
2018-11-25T13:22:03.406Z,69.40
2018-11-25T13:27:07.003Z,69.60
2018-11-25T13:32:10.635Z,69.20
2018-11-25T13:37:14.516Z,68.80
2018-11-25T13:42:18.123Z,69.00
2018-11-25T13:47:21.801Z,69.10
2018-11-25T13:52:25.366Z,68.80
2018-11-25T13:57:28.942Z,68.20
2018-11-25T14:02:32.536Z,68.10
2018-11-25T14:07:36.408Z,68.40
2018-11-25T14:12:39.988Z,66.80
2018-11-25T14:17:43.669Z,65.50
2018-11-25T14:22:53.290Z,64.30
2018-11-25T14:27:59.073Z,64.20
2018-11-25T14:33:02.656Z,64.30
2018-11-25T14:38:06.960Z,63.90
2018-11-25T14:43:10.885Z,63.60
2018-11-25T14:48:14.758Z,63.20
2018-11-25T14:53:18.559Z,63.30
2018-11-25T14:58:22.142Z,63.00
2018-11-25T15:03:25.757Z,63.40
2018-11-25T15:08:29.548Z,63.40
2018-11-25T15:13:33.128Z,63.90
2018-11-25T15:18:37.084Z,63.50
2018-11-25T15:23:40.780Z,63.40
2018-11-25T15:28:44.689Z,63.70
2018-11-25T15:33:48.611Z,63.20
2018-11-25T15:38:52.306Z,63.20
2018-11-25T15:43:56.020Z,63.20
2018-11-25T15:49:00.031Z,64.30
2018-11-25T15:54:03.963Z,64.50
2018-11-25T15:59:07.956Z,64.60
2018-11-25T16:04:11.926Z,64.80
2018-11-25T16:09:15.686Z,65.10
2018-11-25T16:14:19.496Z,65.40
2018-11-25T16:19:23.496Z,65.30
2018-11-25T16:24:27.205Z,65.50
2018-11-25T16:29:30.972Z,66.40
2018-11-25T16:34:34.842Z,67.30
2018-11-25T16:39:38.812Z,67.40
2018-11-25T16:44:46.522Z,67.30
2018-11-25T16:49:50.543Z,67.20
2018-11-25T16:54:54.170Z,67.00
2018-11-25T17:00:01.397Z,67.10
2018-11-25T17:05:18.242Z,66.60
2018-11-25T17:10:21.881Z,67.40
2018-11-25T17:15:27.297Z,67.80
2018-11-25T17:20:30.972Z,67.70
2018-11-25T17:25:34.624Z,67.50
2018-11-25T17:30:38.337Z,67.60
2018-11-25T17:35:42.089Z,67.00
2018-11-25T17:40:45.733Z,66.50
2018-11-25T17:45:49.853Z,66.60
2018-11-25T17:50:53.537Z,67.10
2018-11-25T17:55:57.172Z,67.80
2018-11-25T18:01:04.823Z,68.50
2018-11-25T18:06:08.459Z,69.10
2018-11-25T18:11:12.065Z,69.00
2018-11-25T18:16:15.698Z,69.90
2018-11-25T18:21:23.213Z,69.80
2018-11-25T18:26:27.076Z,70.10
2018-11-25T18:31:30.665Z,70.50
2018-11-25T18:36:34.259Z,70.60
2018-11-25T18:41:37.943Z,70.70
2018-11-25T18:46:46.572Z,70.80
2018-11-25T18:51:45.434Z,70.60
2018-11-25T18:56:49.284Z,70.90
2018-11-25T19:01:57.891Z,69.60
2018-11-25T19:07:01.501Z,69.30
2018-11-25T19:12:05.461Z,69.50
2018-11-25T19:17:09.050Z,69.10
2018-11-25T19:22:12.636Z,69.30
2018-11-25T19:27:16.762Z,68.90
2018-11-25T19:32:20.531Z,68.30
2018-11-25T19:37:24.354Z,68.60
2018-11-25T19:42:28.094Z,68.50
2018-11-25T19:47:31.952Z,69.20
2018-11-25T19:52:36.643Z,69.90
2018-11-25T19:57:40.828Z,70.00
2018-11-25T20:02:44.694Z,71.30
2018-11-25T20:07:48.742Z,70.90
2018-11-25T20:12:55.677Z,73.00
2018-11-25T20:18:00.333Z,73.50
2018-11-25T20:23:09.252Z,74.40
2018-11-25T20:28:13.423Z,74.20
2018-11-25T20:33:22.652Z,74.10
2018-11-25T20:38:31.775Z,74.70
2018-11-25T20:43:35.456Z,73.90
2018-11-25T20:48:39.345Z,73.30
2018-11-25T20:53:48.255Z,72.40
2018-11-25T20:58:52.606Z,71.60
2018-11-25T21:03:56.203Z,71.40
2018-11-25T21:09:00.426Z,71.00
2018-11-25T21:14:04.027Z,70.90
2018-11-25T21:19:07.577Z,71.40
2018-11-25T21:24:11.201Z,71.40
2018-11-25T21:29:14.776Z,71.10
2018-11-25T21:34:18.478Z,71.00
2018-11-25T21:39:22.112Z,70.80
2018-11-25T21:44:25.697Z,70.70
2018-11-25T21:49:29.801Z,70.50
2018-11-25T21:54:33.366Z,70.10
2018-11-25T21:59:37.210Z,70.40
2018-11-25T22:04:40.824Z,70.50
2018-11-25T22:09:44.560Z,70.70
2018-11-25T22:14:48.139Z,70.30
2018-11-25T22:19:51.973Z,70.20
2018-11-25T22:24:55.582Z,70.50
2018-11-25T22:30:04.101Z,70.40
2018-11-25T22:35:10.551Z,69.90
2018-11-25T22:40:15.307Z,70.00
2018-11-25T22:45:21.408Z,70.00
2018-11-25T22:50:27.640Z,70.00
2018-11-25T22:55:28.677Z,70.10
2018-11-25T23:00:34.873Z,70.10
2018-11-25T23:05:49.685Z,69.80
2018-11-25T23:10:53.592Z,69.80
2018-11-25T23:15:57.429Z,69.80
2018-11-25T23:21:01.541Z,70.30
2018-11-25T23:26:05.379Z,70.20
2018-11-25T23:31:09.677Z,69.90
2018-11-25T23:36:15.643Z,69.60
2018-11-25T23:41:19.466Z,69.10
2018-11-25T23:46:23.071Z,68.60
2018-11-25T23:51:26.910Z,68.20
2018-11-25T23:56:31.328Z,68.60
